Decoded Metar for PASN (ST. PAUL ISLAND in AK, USA) (IATA:SNP) | Meteo·Mobile Aviation Weather
aviador You're here:

PASN Decoded Metar

ST. PAUL ISLAND in AK, USA
Report Time2018-09-21 12:22:00
UTC Time2018-09-21 12:35:29
Flight Rules lifr LIFR
Wind230° at 20 Gusting to 25 kt
W.Decomp.*RWY 18: 15.3 kt HW 12.9 kt RCW
W.Rank230° ranks 19
Current wind is above 230° avg. (12.3)
Visibility4828 m
Phenomena:Light Rain
Mist
Clouds:Broken 003 Hf
Overcast 009 Hf
Ceiling300 ft
Temp10°C (ISA -5)
Dew Point10°C (100% RH)
AAT2.8°C
QNH1002 hPa
Density Alt59 ft
Elevation95 ft
Report Wrong Elevation
Raw Report
PASN 211222Z AUTO 23020G25KT 3SM -RA BR BKN003 OVC009 10/10 A2959=

Extra information for PASN:More info

Metar Taf Metar & Taf Last 4 Metars F.Rules Stats Wind Profile Meteogram Temp Stats Airport Information Weather charts Add Link Nearby VenuesMetar ALERT Operation Metar Decoded Social comments

AIRNAV info for PASN